createdAt,value
2022-08-19T00:00:28.257Z,32
2022-08-19T00:01:30.843Z,32.1
2022-08-19T00:02:37.027Z,32.2
2022-08-19T00:03:42.508Z,32.1
2022-08-19T00:04:44.752Z,32.2
2022-08-19T00:05:47.384Z,31.9
2022-08-19T00:06:49.308Z,32.1
2022-08-19T00:07:51.777Z,32
2022-08-19T00:08:54.265Z,32.3
2022-08-19T00:09:56.783Z,32.1
2022-08-19T00:10:59.668Z,32
2022-08-19T00:12:02.140Z,32.1
2022-08-19T00:13:04.615Z,32.1
2022-08-19T00:14:07.139Z,32.2
2022-08-19T00:15:09.617Z,32.2
2022-08-19T00:16:14.612Z,32
2022-08-19T00:17:17.084Z,32.6
2022-08-19T00:18:19.285Z,32.4
2022-08-19T00:19:21.476Z,32.2
2022-08-19T00:20:23.941Z,32.1
2022-08-19T00:21:25.586Z,32.1
2022-08-19T00:22:28.084Z,32.2
2022-08-19T00:23:30.578Z,32.4
2022-08-19T00:24:33.056Z,32.3
2022-08-19T00:25:36.992Z,32.4
2022-08-19T00:26:40.809Z,32.2
2022-08-19T00:27:43.014Z,32.3
2022-08-19T00:28:45.210Z,32.1
2022-08-19T00:29:52.190Z,32.4
2022-08-19T00:30:52.688Z,32.3
2022-08-19T00:31:54.358Z,32.3
2022-08-19T00:32:56.836Z,32.3
2022-08-19T00:33:58.785Z,32.3
2022-08-19T00:35:01.260Z,32.4
2022-08-19T00:36:03.752Z,32.6
2022-08-19T00:37:06.224Z,32.3
2022-08-19T00:38:10.473Z,32.2
2022-08-19T00:39:12.968Z,32.5
2022-08-19T00:40:15.440Z,32.2
2022-08-19T00:41:17.642Z,32.5
2022-08-19T00:42:20.112Z,32.3
2022-08-19T00:43:22.323Z,32.4
2022-08-19T00:44:26.761Z,32.4
2022-08-19T00:45:29.232Z,32.2
2022-08-19T00:46:37.599Z,32.1
2022-08-19T00:47:40.074Z,32.3
2022-08-19T00:48:42.550Z,32.4
2022-08-19T00:49:45.016Z,32.3
2022-08-19T00:50:51.696Z,32.3
2022-08-19T00:51:52.526Z,32.4
2022-08-19T00:52:56.153Z,32.5
2022-08-19T00:53:58.635Z,32.3
2022-08-19T00:55:00.830Z,32.7
2022-08-19T00:56:03.311Z,32.5
2022-08-19T00:57:05.794Z,32.5
2022-08-19T00:58:08.285Z,32.4
2022-08-19T00:59:10.781Z,32.2
2022-08-19T01:00:13.335Z,32.4
2022-08-19T01:01:15.570Z,32.3
2022-08-19T01:02:17.967Z,32.6
2022-08-19T01:03:19.914Z,32.3
2022-08-19T01:04:22.113Z,32.4
2022-08-19T01:05:24.598Z,32.5
2022-08-19T01:06:27.082Z,32.3
2022-08-19T01:07:29.304Z,32.1
2022-08-19T01:08:34.297Z,32.5
2022-08-19T01:09:36.777Z,32.6
2022-08-19T01:10:38.985Z,32.1
2022-08-19T01:11:41.167Z,32.4
2022-08-19T01:12:43.657Z,32.5
2022-08-19T01:13:49.625Z,32.3
2022-08-19T01:14:50.549Z,32.3
2022-08-19T01:15:53.031Z,32.3
2022-08-19T01:16:54.930Z,32.5
2022-08-19T01:17:57.127Z,32.5
2022-08-19T01:18:59.598Z,32.5
2022-08-19T01:20:02.064Z,32.4
2022-08-19T01:21:04.271Z,32.2
2022-08-19T01:22:14.091Z,32.5
2022-08-19T01:23:11.741Z,32.6
2022-08-19T01:24:13.937Z,32.4
2022-08-19T01:25:16.406Z,32.3
2022-08-19T01:26:20.285Z,32.5
2022-08-19T01:27:24.104Z,32.4
2022-08-19T01:28:33.781Z,32.5
2022-08-19T01:29:36.659Z,32.5
2022-08-19T01:30:44.332Z,32.4
2022-08-19T01:31:49.751Z,32.3
2022-08-19T01:32:52.020Z,32.5
2022-08-19T01:33:55.672Z,32.5
2022-08-19T01:34:57.875Z,32.2
2022-08-19T01:36:00.100Z,32.1
2022-08-19T01:37:05.102Z,32.6
2022-08-19T01:38:07.574Z,32.4
2022-08-19T01:39:14.852Z,32.6
2022-08-19T01:40:17.383Z,32.5
2022-08-19T01:41:20.137Z,32.6
2022-08-19T01:42:22.610Z,32.3
2022-08-19T01:43:27.606Z,32.5
2022-08-19T01:44:29.809Z,32.6
2022-08-19T01:45:32.286Z,32.5
2022-08-19T01:46:34.749Z,32.4
2022-08-19T01:47:36.977Z,32.3
2022-08-19T01:48:39.184Z,32.4
2022-08-19T01:49:41.662Z,32.4
2022-08-19T01:50:44.161Z,32.3
2022-08-19T01:51:46.658Z,32.4
2022-08-19T01:52:48.905Z,32.6
2022-08-19T01:53:53.872Z,32.6
2022-08-19T01:54:56.341Z,32.4
2022-08-19T01:55:58.824Z,32.4
2022-08-19T01:57:01.020Z,32.4
2022-08-19T01:58:03.491Z,32.6
2022-08-19T01:59:05.986Z,32.5
2022-08-19T02:00:08.183Z,32.3
2022-08-19T02:01:10.212Z,32.4
2022-08-19T02:02:12.664Z,32.7
2022-08-19T02:03:15.140Z,32.4
2022-08-19T02:04:17.338Z,32.6
2022-08-19T02:05:19.811Z,32.4
2022-08-19T02:06:21.732Z,32.5
2022-08-19T02:07:26.728Z,32.5
2022-08-19T02:08:29.200Z,32.3
2022-08-19T02:09:31.684Z,32.5
2022-08-19T02:10:34.150Z,32.4
2022-08-19T02:11:36.627Z,32.6
2022-08-19T02:12:38.830Z,32.3
2022-08-19T02:13:41.437Z,32.3
2022-08-19T02:14:44.850Z,32.6
2022-08-19T02:15:47.332Z,32.6
2022-08-19T02:16:49.824Z,32.5
2022-08-19T02:17:52.320Z,32.3
2022-08-19T02:18:54.251Z,32.5
2022-08-19T02:19:56.454Z,32.4
2022-08-19T02:20:58.932Z,32.3
2022-08-19T02:22:00.885Z,32.3
2022-08-19T02:23:03.086Z,32.4
2022-08-19T02:24:05.288Z,32.5
2022-08-19T02:25:07.755Z,32.4
2022-08-19T02:26:09.955Z,32.3
2022-08-19T02:27:12.417Z,32.3
2022-08-19T02:28:18.482Z,32.3
2022-08-19T02:29:19.884Z,32.5
2022-08-19T02:30:22.082Z,32.5
2022-08-19T02:31:25.498Z,32.4
2022-08-19T02:32:28.052Z,32.6
2022-08-19T02:33:29.956Z,32.4
2022-08-19T02:34:32.431Z,32.6
2022-08-19T02:35:34.903Z,32.4
2022-08-19T02:36:37.078Z,32.5
2022-08-19T02:37:42.073Z,32.2
2022-08-19T02:38:47.042Z,32.6
2022-08-19T02:39:49.284Z,32.5
2022-08-19T02:40:51.843Z,32.3
2022-08-19T02:41:54.415Z,32.5
2022-08-19T02:42:56.325Z,32.3
2022-08-19T02:43:59.451Z,32.4
2022-08-19T02:45:03.801Z,32.4
2022-08-19T02:46:06.272Z,32.3
2022-08-19T02:47:08.749Z,32
2022-08-19T02:48:12.791Z,32.3
2022-08-19T02:49:15.368Z,32.1
2022-08-19T02:50:18.166Z,32
2022-08-19T02:51:20.639Z,32.2
2022-08-19T02:52:22.850Z,32.2
2022-08-19T02:53:25.331Z,32.2
2022-08-19T02:54:27.020Z,32.2
2022-08-19T02:55:29.542Z,31.8
2022-08-19T02:56:35.730Z,31.9
2022-08-19T02:57:37.926Z,31.8
2022-08-19T02:58:40.120Z,32
2022-08-19T02:59:43.532Z,31.8
2022-08-19T03:00:46.020Z,31.9
2022-08-19T03:01:48.488Z,32.1
2022-08-19T03:02:52.202Z,31.8
2022-08-19T03:03:55.358Z,32.1
2022-08-19T03:04:57.824Z,31.9
2022-08-19T03:06:00.314Z,31.8
2022-08-19T03:07:02.785Z,31.9
2022-08-19T03:08:07.781Z,32.1
2022-08-19T03:09:09.405Z,31.8
2022-08-19T03:10:11.756Z,32.1
2022-08-19T03:11:13.955Z,32.1
2022-08-19T03:12:16.434Z,32
2022-08-19T03:13:18.635Z,32.2
2022-08-19T03:14:20.894Z,31.9
2022-08-19T03:15:23.333Z,31.7
2022-08-19T03:16:25.610Z,31.9
2022-08-19T03:17:27.848Z,31.8
2022-08-19T03:18:30.059Z,31.8
2022-08-19T03:19:32.980Z,32
2022-08-19T03:20:35.477Z,32
2022-08-19T03:21:37.946Z,32.2
2022-08-19T03:22:40.426Z,31.9
2022-08-19T03:23:42.900Z,31.6
2022-08-19T03:24:45.377Z,31.9
2022-08-19T03:25:47.846Z,31.8
2022-08-19T03:26:52.847Z,31.7
2022-08-19T03:27:55.313Z,31.8
2022-08-19T03:28:58.925Z,31.7
2022-08-19T03:30:04.958Z,31.7
2022-08-19T03:31:42.422Z,31.9
2022-08-19T03:32:24.468Z,31.9
2022-08-19T03:33:24.930Z,31.7
2022-08-19T03:34:26.986Z,32
2022-08-19T03:35:29.560Z,31.9
2022-08-19T03:36:31.764Z,32.2
2022-08-19T03:37:34.244Z,31.9
2022-08-19T03:38:36.717Z,31.7
2022-08-19T03:39:39.232Z,31.7
2022-08-19T03:40:42.045Z,32.1
2022-08-19T03:41:46.176Z,31.9
2022-08-19T03:42:55.126Z,31.9
2022-08-19T03:43:58.725Z,32.1
2022-08-19T03:45:00.626Z,31.9
2022-08-19T03:46:02.845Z,31.6
2022-08-19T03:47:05.324Z,31.9
2022-08-19T03:48:07.818Z,31.9
2022-08-19T03:49:10.009Z,32
2022-08-19T03:50:15.712Z,31.7
2022-08-19T03:51:18.216Z,31.9
2022-08-19T03:52:23.189Z,32
2022-08-19T03:53:25.661Z,31.7
2022-08-19T03:54:28.133Z,31.9
2022-08-19T03:55:30.615Z,31.7
2022-08-19T03:56:33.085Z,31.9
2022-08-19T03:57:34.731Z,32
2022-08-19T03:58:36.937Z,31.7
2022-08-19T03:59:39.410Z,31.9
2022-08-19T04:00:41.341Z,31.7
2022-08-19T04:01:43.828Z,31.7
2022-08-19T04:02:56.620Z,32
2022-08-19T04:03:51.262Z,31.7
2022-08-19T04:04:56.755Z,31.8
2022-08-19T04:05:58.930Z,32
2022-08-19T04:07:01.128Z,31.8
2022-08-19T04:08:03.607Z,31.7
2022-08-19T04:09:05.808Z,31.4
2022-08-19T04:10:09.207Z,32
2022-08-19T04:11:13.268Z,32
2022-08-19T04:12:15.760Z,32.1
2022-08-19T04:13:18.230Z,31.7
2022-08-19T04:14:20.433Z,31.7
2022-08-19T04:15:22.361Z,31.8
2022-08-19T04:16:24.285Z,31.8
2022-08-19T04:17:29.280Z,31.9
2022-08-19T04:18:35.957Z,31.8
2022-08-19T04:19:36.763Z,31.9
2022-08-19T04:20:38.962Z,31.8
2022-08-19T04:21:41.440Z,31.7
2022-08-19T04:22:43.912Z,31.7
2022-08-19T04:23:46.388Z,31.9
2022-08-19T04:24:54.331Z,31.8
2022-08-19T04:25:58.443Z,31.5
2022-08-19T04:27:00.639Z,32
2022-08-19T04:28:02.265Z,31.9
2022-08-19T04:29:04.460Z,31.9
2022-08-19T04:30:09.939Z,31.8
2022-08-19T04:31:12.419Z,31.7
2022-08-19T04:32:14.909Z,31.8
2022-08-19T04:33:17.105Z,32
2022-08-19T04:34:22.102Z,31.9
2022-08-19T04:35:24.981Z,31.9
2022-08-19T04:36:27.521Z,31.9
2022-08-19T04:37:34.846Z,31.8
2022-08-19T04:38:35.024Z,31.7
2022-08-19T04:39:37.547Z,31.8
2022-08-19T04:40:39.947Z,31.6
2022-08-19T04:41:42.425Z,31.8
2022-08-19T04:42:44.889Z,31.7
2022-08-19T04:43:47.365Z,31.8
2022-08-19T04:44:49.832Z,31.8
2022-08-19T04:45:56.946Z,31.9
2022-08-19T04:47:01.510Z,31.7
2022-08-19T04:48:19.873Z,31.7
2022-08-19T04:49:13.072Z,31.7
2022-08-19T04:50:19.866Z,31.9
2022-08-19T04:51:22.350Z,31.9
2022-08-19T04:52:24.278Z,31.9
2022-08-19T04:53:27.467Z,31.9
2022-08-19T04:54:38.115Z,31.6
2022-08-19T04:55:38.247Z,32
2022-08-19T04:56:39.950Z,31.9
2022-08-19T04:57:42.185Z,31.7
2022-08-19T04:58:44.657Z,32
2022-08-19T04:59:47.130Z,31.7
2022-08-19T05:00:49.375Z,32
2022-08-19T05:01:52.161Z,31.6
2022-08-19T05:02:54.502Z,31.7
2022-08-19T05:03:57.372Z,32
2022-08-19T05:04:59.835Z,31.6
2022-08-19T05:06:02.306Z,31.9
2022-08-19T05:07:04.508Z,31.6
2022-08-19T05:08:06.987Z,31.9
2022-08-19T05:09:09.179Z,31.7
2022-08-19T05:10:11.955Z,31.5
2022-08-19T05:11:14.427Z,31.5
2022-08-19T05:12:16.926Z,31.8
2022-08-19T05:13:19.157Z,31.8
2022-08-19T05:14:21.359Z,32
2022-08-19T05:15:23.841Z,31.8
2022-08-19T05:16:26.312Z,31.6
2022-08-19T05:17:31.194Z,31.8
2022-08-19T05:18:33.778Z,31.5
2022-08-19T05:19:36.249Z,31.7
2022-08-19T05:20:38.730Z,31.9
2022-08-19T05:21:41.197Z,31.6
2022-08-19T05:22:43.136Z,31.6
2022-08-19T05:23:45.606Z,31.9
2022-08-19T05:25:09.565Z,31.6
2022-08-19T05:25:52.884Z,31.5
2022-08-19T05:26:55.092Z,31.7
2022-08-19T05:27:57.575Z,31.7
2022-08-19T05:28:59.510Z,31.6
2022-08-19T05:30:03.250Z,31.6
2022-08-19T05:31:05.734Z,31.7
2022-08-19T05:32:08.230Z,31.5
2022-08-19T05:33:10.713Z,31.7
2022-08-19T05:34:18.419Z,31.7
2022-08-19T05:35:18.192Z,31.7
2022-08-19T05:36:20.667Z,31.6
2022-08-19T05:37:22.925Z,31.6
2022-08-19T05:38:24.831Z,31.7
2022-08-19T05:39:27.328Z,31.4
2022-08-19T05:40:29.919Z,31.8
2022-08-19T05:41:31.865Z,31.6
2022-08-19T05:42:38.319Z,31.9
2022-08-19T05:43:40.541Z,31.5
2022-08-19T05:44:42.735Z,31.6
2022-08-19T05:45:44.970Z,31.5
2022-08-19T05:46:46.618Z,31.8
2022-08-19T05:47:49.096Z,31.6
2022-08-19T05:48:51.292Z,31.7
2022-08-19T05:49:56.297Z,31.6
2022-08-19T05:50:58.769Z,31.7
2022-08-19T05:52:01.319Z,31.5
2022-08-19T05:53:03.799Z,31.7
2022-08-19T05:54:05.456Z,31.5
2022-08-19T05:55:07.983Z,31.6
2022-08-19T05:56:10.170Z,31.6
2022-08-19T05:57:13.309Z,31.6
2022-08-19T05:58:15.860Z,31.8
2022-08-19T05:59:22.810Z,31.7
2022-08-19T06:00:27.444Z,31.5
2022-08-19T06:01:30.080Z,31.4
2022-08-19T06:02:32.335Z,31.4
2022-08-19T06:03:34.784Z,31.6
2022-08-19T06:04:37.268Z,31.7
2022-08-19T06:05:42.381Z,31.3
2022-08-19T06:06:44.730Z,31.5
2022-08-19T06:07:46.961Z,31.6
2022-08-19T06:08:49.926Z,31.5
2022-08-19T06:09:59.284Z,31.6
2022-08-19T06:10:57.400Z,31.3
2022-08-19T06:11:59.876Z,31.4
2022-08-19T06:13:02.355Z,31.4
2022-08-19T06:14:04.298Z,31.7
2022-08-19T06:15:06.794Z,31.5
2022-08-19T06:16:08.990Z,31.5
2022-08-19T06:17:11.485Z,31.5
2022-08-19T06:18:13.658Z,31.3
2022-08-19T06:19:16.126Z,31.6
2022-08-19T06:20:20.284Z,31.6
2022-08-19T06:21:23.344Z,31.7
2022-08-19T06:22:25.813Z,31.5
2022-08-19T06:23:28.025Z,31.7
2022-08-19T06:24:29.953Z,31.6
2022-08-19T06:25:32.457Z,31.4
2022-08-19T06:26:34.968Z,31.7
2022-08-19T06:27:39.661Z,31.5
2022-08-19T06:28:42.722Z,31.6
2022-08-19T06:29:45.207Z,31.8
2022-08-19T06:30:47.689Z,31.5
2022-08-19T06:31:49.878Z,31.6
2022-08-19T06:32:52.367Z,31.6
2022-08-19T06:33:55.233Z,31.6
2022-08-19T06:34:57.981Z,31.6
2022-08-19T06:36:00.455Z,31.7
2022-08-19T06:37:02.670Z,31.6
2022-08-19T06:38:05.174Z,31.7
2022-08-19T06:39:07.658Z,31.7
2022-08-19T06:40:10.240Z,31.6
2022-08-19T06:41:12.991Z,31.6
2022-08-19T06:42:15.467Z,31.5
2022-08-19T06:43:23.560Z,31.7
2022-08-19T06:44:28.560Z,31.6
2022-08-19T06:45:34.689Z,31.7
2022-08-19T06:46:38.722Z,31.5
2022-08-19T06:47:48.528Z,31.8
2022-08-19T06:48:51.905Z,31.6
2022-08-19T06:49:55.136Z,31.5
2022-08-19T06:51:00.159Z,31.6
2022-08-19T06:52:07.114Z,31.8
2022-08-19T06:53:14.062Z,31.6
2022-08-19T06:54:18.899Z,31.7
2022-08-19T06:55:21.879Z,31.4
2022-08-19T06:56:25.117Z,31.6
2022-08-19T06:57:27.599Z,31.7
2022-08-19T06:58:30.073Z,31.5
2022-08-19T06:59:33.798Z,31.6
2022-08-19T07:00:36.274Z,31.7
2022-08-19T07:01:38.869Z,31.5
2022-08-19T07:02:42.046Z,31.7
2022-08-19T07:03:48.077Z,31.7
2022-08-19T07:04:52.956Z,31.9
2022-08-19T07:05:55.682Z,31.6
2022-08-19T07:06:58.706Z,31.5
2022-08-19T07:08:05.160Z,31.5
2022-08-19T07:09:07.663Z,31.5
2022-08-19T07:10:10.500Z,31.6
2022-08-19T07:11:14.123Z,31.5
2022-08-19T07:12:17.472Z,31.7
2022-08-19T07:13:23.457Z,31.5
2022-08-19T07:14:25.674Z,31.7
2022-08-19T07:15:28.174Z,31.5
2022-08-19T07:16:31.613Z,31.3
2022-08-19T07:17:34.488Z,31.7
2022-08-19T07:18:36.585Z,31.7
2022-08-19T07:19:43.891Z,31.5
2022-08-19T07:20:49.850Z,31.5
2022-08-19T07:21:52.970Z,31.7
2022-08-19T07:22:56.189Z,31.5
2022-08-19T07:24:00.966Z,31.5
2022-08-19T07:25:05.123Z,31.6
2022-08-19T07:26:07.185Z,31.5
2022-08-19T07:27:13.067Z,31.6
2022-08-19T07:28:20.180Z,31.7
2022-08-19T07:29:22.320Z,31.6
2022-08-19T07:30:29.589Z,31.6
2022-08-19T07:31:36.927Z,31.4
2022-08-19T07:32:40.385Z,31.5
2022-08-19T07:33:42.898Z,31.6
2022-08-19T07:34:49.970Z,31.7
2022-08-19T07:35:52.583Z,31.5
2022-08-19T07:36:55.097Z,31.9
2022-08-19T07:37:57.303Z,31.7
2022-08-19T07:38:59.774Z,31.7
2022-08-19T07:40:02.238Z,31.6
2022-08-19T07:41:04.840Z,31.7
2022-08-19T07:42:07.308Z,31.5
2022-08-19T07:43:13.585Z,31.7
2022-08-19T07:44:14.510Z,31.7
2022-08-19T07:45:16.985Z,31.7
2022-08-19T07:46:19.471Z,31.7
2022-08-19T07:47:48.639Z,31.9
2022-08-19T07:48:26.939Z,31.5
2022-08-19T07:49:29.421Z,31.7
2022-08-19T07:50:31.629Z,31.7
2022-08-19T07:51:36.271Z,31.7
2022-08-19T07:52:39.106Z,31.8
2022-08-19T07:53:41.871Z,31.7
2022-08-19T07:54:44.342Z,31.6
2022-08-19T07:55:46.567Z,31.7
2022-08-19T07:56:48.762Z,31.4
2022-08-19T07:57:53.756Z,31.9
2022-08-19T07:59:58.910Z,32
2022-08-19T08:01:01.110Z,31.7
2022-08-19T08:02:03.684Z,31.7
2022-08-19T08:03:06.613Z,31.9
2022-08-19T08:04:08.813Z,31.9
2022-08-19T08:05:11.030Z,31.7
2022-08-19T08:06:14.469Z,31.6
2022-08-19T08:07:16.940Z,31.5
2022-08-19T08:08:19.417Z,31.8
2022-08-19T08:09:25.878Z,31.8
2022-08-19T08:10:28.891Z,31.8
2022-08-19T08:11:32.147Z,31.8
2022-08-19T08:12:38.125Z,31.8
2022-08-19T08:13:41.299Z,31.9
2022-08-19T08:14:43.961Z,31.9
2022-08-19T08:15:49.617Z,31.8
2022-08-19T08:16:54.613Z,31.7
2022-08-19T08:18:01.143Z,31.7
2022-08-19T08:19:04.262Z,31.7
2022-08-19T08:20:09.262Z,31.7
2022-08-19T08:21:11.759Z,31.8
2022-08-19T08:22:13.963Z,31.8
2022-08-19T08:23:16.189Z,31.6
2022-08-19T08:24:18.105Z,31.7
2022-08-19T08:25:20.615Z,31.6
2022-08-19T08:26:23.983Z,31.6
2022-08-19T08:27:27.121Z,31.5
2022-08-19T08:28:33.648Z,31.9
2022-08-19T08:29:36.139Z,31.7
2022-08-19T08:30:38.622Z,31.7
2022-08-19T08:31:44.598Z,31.7
2022-08-19T08:32:51.587Z,31.6
2022-08-19T08:33:54.070Z,31.5
2022-08-19T08:34:56.565Z,31.7
2022-08-19T08:35:58.777Z,31.6
2022-08-19T08:37:00.976Z,31.6
2022-08-19T08:38:03.461Z,31.6
2022-08-19T08:39:05.709Z,31.8
2022-08-19T08:40:10.158Z,31.7
2022-08-19T08:41:12.951Z,31.7
2022-08-19T08:42:16.847Z,31.8
2022-08-19T08:43:19.936Z,31.7
2022-08-19T08:44:22.560Z,31.8
2022-08-19T08:45:27.636Z,31.6
2022-08-19T08:46:32.743Z,31.5
2022-08-19T08:47:34.967Z,31.5
2022-08-19T08:48:41.417Z,31.9
2022-08-19T08:49:48.111Z,31.6
2022-08-19T08:50:53.111Z,31.9
2022-08-19T08:51:56.180Z,31.8
2022-08-19T08:53:00.584Z,31.9
2022-08-19T08:54:03.600Z,31.7
2022-08-19T08:55:06.160Z,31.5
2022-08-19T08:56:10.515Z,31.6
2022-08-19T08:57:18.737Z,31.7
2022-08-19T08:58:21.864Z,31.6
2022-08-19T08:59:24.397Z,31.8
2022-08-19T09:00:26.917Z,31.5
2022-08-19T09:01:29.130Z,31.7
2022-08-19T09:02:32.983Z,31.7
2022-08-19T09:03:35.468Z,31.7
2022-08-19T09:04:38.210Z,31.9
2022-08-19T09:05:42.184Z,31.7
2022-08-19T09:06:46.120Z,31.7
2022-08-19T09:07:48.642Z,31.8
2022-08-19T09:08:56.703Z,31.6
2022-08-19T09:09:58.171Z,31.7
2022-08-19T09:11:01.981Z,31.7
2022-08-19T09:12:06.993Z,31.8
2022-08-19T09:13:12.490Z,31.7
2022-08-19T09:14:29.375Z,31.7
2022-08-19T09:15:19.707Z,31.9
2022-08-19T09:16:27.787Z,31.7
2022-08-19T09:17:29.697Z,31.7
2022-08-19T09:18:31.902Z,31.6
2022-08-19T09:19:34.126Z,31.7
2022-08-19T09:20:36.623Z,31.5
2022-08-19T09:21:41.679Z,31.7
2022-08-19T09:22:44.176Z,31.4
2022-08-19T09:23:50.870Z,31.7
2022-08-19T09:24:54.157Z,31.5
2022-08-19T09:25:56.443Z,31.7
2022-08-19T09:27:02.790Z,31.4
2022-08-19T09:28:12.730Z,31.7
2022-08-19T09:29:10.997Z,31.4
2022-08-19T09:30:13.971Z,31.7
2022-08-19T09:31:16.899Z,31.8
2022-08-19T09:32:26.518Z,31.6
2022-08-19T09:33:23.543Z,31.7
2022-08-19T09:34:26.060Z,31.9
2022-08-19T09:35:28.884Z,31.6
2022-08-19T09:36:34.663Z,31.6
2022-08-19T09:37:37.181Z,31.7
2022-08-19T09:38:43.533Z,31.8
2022-08-19T09:39:46.197Z,31.8
2022-08-19T09:40:50.103Z,31.5
2022-08-19T09:41:53.553Z,31.7
2022-08-19T09:42:59.527Z,31.7
2022-08-19T09:44:07.202Z,31.7
2022-08-19T09:45:12.682Z,31.7
2022-08-19T09:46:18.145Z,31.9
2022-08-19T09:47:20.165Z,31.4
2022-08-19T09:48:25.159Z,31.8
2022-08-19T09:49:28.756Z,31.7
2022-08-19T09:50:31.899Z,31.7
2022-08-19T09:51:36.902Z,31.6
2022-08-19T09:52:54.262Z,31.9
2022-08-19T09:53:48.383Z,31.7
2022-08-19T09:54:53.389Z,31.7
2022-08-19T09:55:55.885Z,31.6
2022-08-19T09:56:58.089Z,31.8
2022-08-19T09:58:05.413Z,31.5
2022-08-19T09:59:07.920Z,31.5
2022-08-19T10:00:10.142Z,31.9
2022-08-19T10:01:12.185Z,31.6
2022-08-19T10:02:15.012Z,31.7
2022-08-19T10:03:20.010Z,31.8
2022-08-19T10:04:25.493Z,31.7
2022-08-19T10:05:29.465Z,31.8
2022-08-19T10:06:43.243Z,31.7
2022-08-19T10:07:38.180Z,31.9
2022-08-19T10:08:40.551Z,31.8
2022-08-19T10:09:45.560Z,31.9
2022-08-19T10:10:49.226Z,31.8
2022-08-19T10:11:54.778Z,31.6
2022-08-19T10:12:56.723Z,31.6
2022-08-19T10:13:59.269Z,31.8
2022-08-19T10:15:01.747Z,31.8
2022-08-19T10:16:04.258Z,31.7
2022-08-19T10:17:17.605Z,31.9
2022-08-19T10:18:11.774Z,31.4
2022-08-19T10:19:14.276Z,31.6
2022-08-19T10:20:19.786Z,31.7
2022-08-19T10:21:22.639Z,31.7
2022-08-19T10:22:27.638Z,31.5
2022-08-19T10:23:33.892Z,31.7
2022-08-19T10:24:39.306Z,31.6
2022-08-19T10:25:44.293Z,31.5
2022-08-19T10:26:55.745Z,31.5
2022-08-19T10:27:55.924Z,31.5
2022-08-19T10:28:59.414Z,31.7
2022-08-19T10:30:01.620Z,31.4
2022-08-19T10:31:09.221Z,31.5
2022-08-19T10:32:11.504Z,31.6
2022-08-19T10:33:38.468Z,31.3
2022-08-19T10:34:27.339Z,31.7
2022-08-19T10:35:26.500Z,31.5
2022-08-19T10:36:29.428Z,31.7
2022-08-19T10:37:37.714Z,31.6
2022-08-19T10:38:50.347Z,31.4
2022-08-19T10:39:47.757Z,31.8
2022-08-19T10:40:52.889Z,31.6
2022-08-19T10:41:56.061Z,31.7
2022-08-19T10:42:58.599Z,31.7
2022-08-19T10:44:02.424Z,31.7
2022-08-19T10:45:06.088Z,31.9
2022-08-19T10:46:09.587Z,31.5
2022-08-19T10:47:17.466Z,31.8
2022-08-19T10:48:19.512Z,31.8
2022-08-19T10:49:24.132Z,31.6
2022-08-19T10:50:28.439Z,31.5
2022-08-19T10:51:31.348Z,31.6
2022-08-19T10:52:35.181Z,31.8
2022-08-19T10:53:40.178Z,31.7
2022-08-19T10:54:43.171Z,31.5
2022-08-19T10:55:45.652Z,31.7
2022-08-19T10:56:47.624Z,31.6
2022-08-19T10:58:02.081Z,31.6
2022-08-19T10:58:55.094Z,31.6
2022-08-19T10:59:57.572Z,31.7
2022-08-19T11:01:00.138Z,31.3
2022-08-19T11:02:02.201Z,31.4
2022-08-19T11:03:04.672Z,31.7
2022-08-19T11:04:11.653Z,31.6
2022-08-19T11:05:14.161Z,31.6
2022-08-19T11:06:16.810Z,31.8
2022-08-19T11:07:19.020Z,31.6
2022-08-19T11:08:23.595Z,31.7
2022-08-19T11:09:33.519Z,31.7
2022-08-19T11:10:31.501Z,31.7
2022-08-19T11:11:33.712Z,31.6
2022-08-19T11:12:38.708Z,31.6
2022-08-19T11:13:40.908Z,31.7
2022-08-19T11:14:43.106Z,31.7
2022-08-19T11:15:45.296Z,31.7
2022-08-19T11:16:47.771Z,31.8
2022-08-19T11:17:49.742Z,31.6
2022-08-19T11:18:52.350Z,31.7
2022-08-19T11:19:54.823Z,31.7
2022-08-19T11:20:57.306Z,31.6
2022-08-19T11:22:00.148Z,31.7
2022-08-19T11:23:05.171Z,31.4
2022-08-19T11:24:07.653Z,31.4
2022-08-19T11:25:09.906Z,31.7
2022-08-19T11:26:12.638Z,31.3
2022-08-19T11:27:15.123Z,31.6
2022-08-19T11:28:17.598Z,31.6
2022-08-19T11:29:20.072Z,31.4
2022-08-19T11:30:21.986Z,31.8
2022-08-19T11:31:24.826Z,31.6
2022-08-19T11:32:29.477Z,31.5
2022-08-19T11:33:31.953Z,31.4
2022-08-19T11:34:34.024Z,31.5
2022-08-19T11:35:35.933Z,31.5
2022-08-19T11:36:37.887Z,31.7
2022-08-19T11:37:39.806Z,31.7
2022-08-19T11:38:42.290Z,31.5
2022-08-19T11:39:44.813Z,31.6
2022-08-19T11:40:49.788Z,31.6
2022-08-19T11:41:52.269Z,31.5
2022-08-19T11:42:54.458Z,31.5
2022-08-19T11:43:56.409Z,31.4
2022-08-19T11:44:58.398Z,31.8
2022-08-19T11:46:00.328Z,31.5
2022-08-19T11:47:08.689Z,31.5
2022-08-19T11:48:07.808Z,31.6
2022-08-19T11:49:13.740Z,31.6
2022-08-19T11:50:15.303Z,31.5
2022-08-19T11:51:17.502Z,31.7
2022-08-19T11:52:19.978Z,31.7
2022-08-19T11:53:22.463Z,31.5
2022-08-19T11:54:24.719Z,31.6
2022-08-19T11:55:26.916Z,31.5
2022-08-19T11:56:29.406Z,31.6
2022-08-19T11:57:31.634Z,31.4
2022-08-19T11:58:33.842Z,31.7
2022-08-19T11:59:36.335Z,31.3
2022-08-19T12:00:38.820Z,31.5
2022-08-19T12:01:44.743Z,31.6
2022-08-19T12:02:47.217Z,31.6
2022-08-19T12:03:49.767Z,31.6
2022-08-19T12:04:52.806Z,31.6
2022-08-19T12:05:54.743Z,31.6
2022-08-19T12:06:56.953Z,31.6
2022-08-19T12:07:58.609Z,31.6
2022-08-19T12:09:00.846Z,31.6
2022-08-19T12:10:03.609Z,31.7
2022-08-19T12:11:06.420Z,31.4
2022-08-19T12:12:08.326Z,31.8
2022-08-19T12:13:10.514Z,31.9
2022-08-19T12:14:14.357Z,31.4
2022-08-19T12:15:19.959Z,31.6
2022-08-19T12:16:22.461Z,31.7
2022-08-19T12:17:24.936Z,31.6
2022-08-19T12:18:27.166Z,31.7
2022-08-19T12:19:29.091Z,31.6
2022-08-19T12:20:31.298Z,31.7
2022-08-19T12:21:38.919Z,31.8
2022-08-19T12:22:41.410Z,31.5
2022-08-19T12:23:43.896Z,31.4
2022-08-19T12:24:46.370Z,31.6
2022-08-19T12:25:48.292Z,31.8
2022-08-19T12:26:52.443Z,31.7
2022-08-19T12:27:57.372Z,31.7
2022-08-19T12:29:01.474Z,31.9
2022-08-19T12:30:03.946Z,31.9
2022-08-19T12:31:06.441Z,31.5
2022-08-19T12:32:08.648Z,31.6
2022-08-19T12:33:13.643Z,31.6
2022-08-19T12:34:16.122Z,31.8
2022-08-19T12:35:18.764Z,31.7
2022-08-19T12:36:24.006Z,31.7
2022-08-19T12:37:26.216Z,31.7
2022-08-19T12:38:28.429Z,31.7
2022-08-19T12:39:30.922Z,31.6
2022-08-19T12:40:33.396Z,31.6
2022-08-19T12:41:35.587Z,31.7
2022-08-19T12:42:40.584Z,31.8
2022-08-19T12:43:43.060Z,31.7
2022-08-19T12:44:45.537Z,31.7
2022-08-19T12:45:47.732Z,31.8
2022-08-19T12:46:50.507Z,31.6
2022-08-19T12:47:55.608Z,31.5
2022-08-19T12:48:59.068Z,31.5
2022-08-19T12:50:06.888Z,31.7
2022-08-19T12:51:09.076Z,31.6
2022-08-19T12:52:11.397Z,32
2022-08-19T12:53:16.887Z,31.4
2022-08-19T12:54:19.089Z,31.8
2022-08-19T12:55:21.050Z,31.5
2022-08-19T12:56:23.562Z,31.9
2022-08-19T12:57:31.749Z,31.7
2022-08-19T12:58:30.748Z,31.9
2022-08-19T12:59:33.225Z,31.7
2022-08-19T13:00:35.453Z,31.6
2022-08-19T13:01:38.196Z,31.6
2022-08-19T13:02:40.674Z,31.5
2022-08-19T13:03:42.878Z,31.9
2022-08-19T13:04:45.094Z,31.7
2022-08-19T13:05:47.580Z,31.3
2022-08-19T13:06:50.058Z,31.6
2022-08-19T13:07:52.273Z,31.7
2022-08-19T13:08:59.477Z,31.6
2022-08-19T13:10:00.669Z,31.6
2022-08-19T13:11:02.887Z,31.8
2022-08-19T13:12:05.364Z,31.6
2022-08-19T13:13:07.582Z,31.5
2022-08-19T13:14:09.780Z,31.4
2022-08-19T13:15:12.289Z,31.8
2022-08-19T13:16:17.768Z,31.7
2022-08-19T13:17:20.240Z,31.5
2022-08-19T13:18:22.456Z,31.5
2022-08-19T13:19:25.727Z,31.4
2022-08-19T13:20:28.255Z,31.8
2022-08-19T13:21:30.449Z,31.7
2022-08-19T13:22:32.656Z,31.9
2022-08-19T13:23:34.839Z,31.7
2022-08-19T13:24:37.330Z,31.6
2022-08-19T13:25:44.332Z,32
2022-08-19T13:26:49.339Z,31.3
2022-08-19T13:27:51.860Z,31.5
2022-08-19T13:28:54.910Z,31.7
2022-08-19T13:29:56.583Z,31.6
2022-08-19T13:30:58.830Z,31.6
2022-08-19T13:32:01.032Z,31.5
2022-08-19T13:33:05.062Z,31.7
2022-08-19T13:34:07.275Z,31.5
2022-08-19T13:35:09.960Z,31.4
2022-08-19T13:36:16.582Z,31.6
2022-08-19T13:37:19.081Z,31.8
2022-08-19T13:38:21.282Z,31.3
2022-08-19T13:39:23.759Z,31.5
2022-08-19T13:40:27.025Z,31.6
2022-08-19T13:41:29.221Z,31.5
2022-08-19T13:42:31.426Z,31.6
2022-08-19T13:43:33.626Z,31.5
2022-08-19T13:44:35.816Z,31.8
2022-08-19T13:45:38.297Z,31.5
2022-08-19T13:46:40.797Z,31.9
2022-08-19T13:47:43.013Z,31.7
2022-08-19T13:48:45.213Z,31.9
2022-08-19T13:49:47.688Z,31.6
2022-08-19T13:50:49.866Z,31.7
2022-08-19T13:51:52.405Z,31.6
2022-08-19T13:52:54.360Z,31.7
2022-08-19T13:53:56.541Z,31.7
2022-08-19T13:54:58.761Z,31.3
2022-08-19T13:56:00.668Z,31.9
2022-08-19T13:57:03.172Z,31.5
2022-08-19T13:58:05.355Z,31.8
2022-08-19T13:59:07.844Z,31.7
2022-08-19T14:00:10.047Z,31.6
2022-08-19T14:01:12.319Z,31.3
2022-08-19T14:02:15.187Z,31.9
2022-08-19T14:03:17.676Z,31.8
2022-08-19T14:04:19.589Z,31.4